<?xml version="1.0" encoding="UTF-8" standalone="no" ?>
<gpx xmlns="http://www.topografix.com/GPX/1/1" xmlns:xsi="http://www.w3.org/2001/XMLSchema-instance" xsi:schemaLocation="http://www.topografix.com/GPX/1/1 http://www.topografix.com/GPX/1/1/gpx.xsd" version="1.1" creator="VisuGPX - https://www.visugpx.com">
  <metadata>
    <name>TOTAL 4x4 </name>
  </metadata>
  <wpt lat="42.36368" lon="2.84007">
    <ele>181</ele>
  </wpt>
  <wpt lat="42.36397" lon="2.83975">
    <ele>185.2</ele>
  </wpt>
  <wpt lat="42.36387" lon="2.83877">
    <ele>193</ele>
  </wpt>
  <wpt lat="42.36443" lon="2.83943">
    <ele>186.6</ele>
  </wpt>
  <wpt lat="42.2714" lon="2.52859">
    <ele>415.7</ele>
  </wpt>
  <wpt lat="42.27123" lon="2.52776">
    <ele>417.3</ele>
  </wpt>
  <wpt lat="42.27143" lon="2.53029">
    <ele>408.8</ele>
  </wpt>
  <trk>
    <name><![CDATA[TOTAL 4x4 _9]]></name>
    <extensions>
      <line xmlns="http://www.topografix.com/GPX/gpx_style/0/2">
        <color>880000</color>
        <width>4</width>
      </line>
    </extensions>
    <trkseg>
      <trkpt lat="42.32855" lon="-0.69247">
        <ele>1002.07</ele>
        <time>2021-08-03T12:34:17Z</time>
      </trkpt>
      <trkpt lat="42.32816" lon="-0.69191">
        <ele>1003.22</ele>
        <time>2021-08-03T12:34:30Z</time>
      </trkpt>
      <trkpt lat="42.3279" lon="-0.6913">
        <ele>1003.36</ele>
        <time>2021-08-03T12:34:43Z</time>
      </trkpt>
      <trkpt lat="42.32773" lon="-0.69076">
        <ele>1004.93</ele>
        <time>2021-08-03T12:34:54Z</time>
      </trkpt>
      <trkpt lat="42.32761" lon="-0.69038">
        <ele>1005.35</ele>
        <time>2021-08-03T12:35:06Z</time>
      </trkpt>
      <trkpt lat="42.32757" lon="-0.69038">
        <ele>1005.27</ele>
        <time>2021-08-03T12:35:09Z</time>
      </trkpt>
      <trkpt lat="42.32746" lon="-0.69041">
        <ele>1005.05</ele>
        <time>2021-08-03T12:35:15Z</time>
      </trkpt>
      <trkpt lat="42.3274" lon="-0.69039">
        <ele>1004.92</ele>
        <time>2021-08-03T12:35:18Z</time>
      </trkpt>
      <trkpt lat="42.32709" lon="-0.69075">
        <ele>1004.79</ele>
        <time>2021-08-03T12:35:26Z</time>
      </trkpt>
      <trkpt lat="42.32695" lon="-0.69075">
        <ele>1004.61</ele>
        <time>2021-08-03T12:35:28Z</time>
      </trkpt>
      <trkpt lat="42.32648" lon="-0.69075">
        <ele>1002.1</ele>
        <time>2021-08-03T12:35:36Z</time>
      </trkpt>
      <trkpt lat="42.32642" lon="-0.69077">
        <ele>1001.81</ele>
        <time>2021-08-03T12:35:37Z</time>
      </trkpt>
      <trkpt lat="42.32637" lon="-0.6908">
        <ele>1001.48</ele>
        <time>2021-08-03T12:35:38Z</time>
      </trkpt>
      <trkpt lat="42.32632" lon="-0.69084">
        <ele>1001.16</ele>
        <time>2021-08-03T12:35:39Z</time>
      </trkpt>
      <trkpt lat="42.32629" lon="-0.69087">
        <ele>1000.88</ele>
        <time>2021-08-03T12:35:40Z</time>
      </trkpt>
      <trkpt lat="42.32602" lon="-0.6909">
        <ele>1000.27</ele>
        <time>2021-08-03T12:35:48Z</time>
      </trkpt>
      <trkpt lat="42.32585" lon="-0.69101">
        <ele>1002.05</ele>
        <time>2021-08-03T12:35:57Z</time>
      </trkpt>
      <trkpt lat="42.32593" lon="-0.69101">
        <ele>1003.15</ele>
        <time>2021-08-03T12:36:12Z</time>
      </trkpt>
      <trkpt lat="42.32592" lon="-0.69095">
        <ele>1002.94</ele>
        <time>2021-08-03T12:36:18Z</time>
      </trkpt>
      <trkpt lat="42.3259" lon="-0.69094">
        <ele>1002.92</ele>
        <time>2021-08-03T12:36:19Z</time>
      </trkpt>
      <trkpt lat="42.32589" lon="-0.69092">
        <ele>1002.89</ele>
        <time>2021-08-03T12:36:20Z</time>
      </trkpt>
      <trkpt lat="42.32586" lon="-0.69092">
        <ele>1002.88</ele>
        <time>2021-08-03T12:36:21Z</time>
      </trkpt>
      <trkpt lat="42.32583" lon="-0.69093">
        <ele>1002.87</ele>
        <time>2021-08-03T12:36:22Z</time>
      </trkpt>
      <trkpt lat="42.3258" lon="-0.69094">
        <ele>1002.87</ele>
        <time>2021-08-03T12:36:23Z</time>
      </trkpt>
      <trkpt lat="42.32576" lon="-0.69096">
        <ele>1002.84</ele>
        <time>2021-08-03T12:36:24Z</time>
      </trkpt>
      <trkpt lat="42.32571" lon="-0.69098">
        <ele>1002.84</ele>
        <time>2021-08-03T12:36:25Z</time>
      </trkpt>
      <trkpt lat="42.32533" lon="-0.69109">
        <ele>1003.22</ele>
        <time>2021-08-03T12:36:31Z</time>
      </trkpt>
      <trkpt lat="42.32528" lon="-0.69112">
        <ele>1003.33</ele>
        <time>2021-08-03T12:36:32Z</time>
      </trkpt>
      <trkpt lat="42.32524" lon="-0.69115">
        <ele>1003.48</ele>
        <time>2021-08-03T12:36:33Z</time>
      </trkpt>
      <trkpt lat="42.32512" lon="-0.69125">
        <ele>1004.39</ele>
        <time>2021-08-03T12:36:36Z</time>
      </trkpt>
      <trkpt lat="42.32484" lon="-0.6914">
        <ele>1007.29</ele>
        <time>2021-08-03T12:36:45Z</time>
      </trkpt>
      <trkpt lat="42.32483" lon="-0.69159">
        <ele>1008.39</ele>
        <time>2021-08-03T12:36:55Z</time>
      </trkpt>
      <trkpt lat="42.32481" lon="-0.6917">
        <ele>1009.2</ele>
        <time>2021-08-03T12:38:24Z</time>
      </trkpt>
      <trkpt lat="42.3248" lon="-0.69185">
        <ele>1009.19</ele>
        <time>2021-08-03T12:38:33Z</time>
      </trkpt>
      <trkpt lat="42.32479" lon="-0.69186">
        <ele>1009.22</ele>
        <time>2021-08-03T12:38:34Z</time>
      </trkpt>
      <trkpt lat="42.32481" lon="-0.69185">
        <ele>1008.94</ele>
        <time>2021-08-03T12:38:47Z</time>
      </trkpt>
      <trkpt lat="42.3248" lon="-0.69187">
        <ele>1008.55</ele>
        <time>2021-08-03T12:39:15Z</time>
      </trkpt>
      <trkpt lat="42.32485" lon="-0.69181">
        <ele>1008.53</ele>
        <time>2021-08-03T12:39:36Z</time>
      </trkpt>
      <trkpt lat="42.32483" lon="-0.69174">
        <ele>1008.5</ele>
        <time>2021-08-03T12:39:54Z</time>
      </trkpt>
      <trkpt lat="42.32484" lon="-0.69164">
        <ele>1008.5</ele>
        <time>2021-08-03T12:40:04Z</time>
      </trkpt>
      <trkpt lat="42.32484" lon="-0.69156">
        <ele>1008.89</ele>
        <time>2021-08-03T12:40:19Z</time>
      </trkpt>
      <trkpt lat="42.32484" lon="-0.69156">
        <ele>1009</ele>
        <time>2021-08-03T12:40:41Z</time>
      </trkpt>
      <trkpt lat="42.32483" lon="-0.69155">
        <ele>1009.66</ele>
        <time>2021-08-03T12:43:35Z</time>
      </trkpt>
      <trkpt lat="42.32484" lon="-0.69163">
        <ele>1007.78</ele>
        <time>2021-08-03T12:43:49Z</time>
      </trkpt>
      <trkpt lat="42.32487" lon="-0.69164">
        <ele>1008.79</ele>
        <time>2021-08-03T12:44:15Z</time>
      </trkpt>
      <trkpt lat="42.32488" lon="-0.69162">
        <ele>1009.17</ele>
        <time>2021-08-03T12:44:26Z</time>
      </trkpt>
      <trkpt lat="42.32485" lon="-0.69139">
        <ele>1010.98</ele>
        <time>2021-08-03T12:48:09Z</time>
      </trkpt>
      <trkpt lat="42.32487" lon="-0.69133">
        <ele>1009.48</ele>
        <time>2021-08-03T12:48:13Z</time>
      </trkpt>
      <trkpt lat="42.32488" lon="-0.69133">
        <ele>1009.72</ele>
        <time>2021-08-03T12:48:14Z</time>
      </trkpt>
      <trkpt lat="42.32489" lon="-0.69132">
        <ele>1009.58</ele>
        <time>2021-08-03T12:48:15Z</time>
      </trkpt>
      <trkpt lat="42.32517" lon="-0.69122">
        <ele>1007.06</ele>
        <time>2021-08-03T12:48:25Z</time>
      </trkpt>
      <trkpt lat="42.32529" lon="-0.69111">
        <ele>1005.99</ele>
        <time>2021-08-03T12:48:35Z</time>
      </trkpt>
      <trkpt lat="42.32548" lon="-0.69103">
        <ele>1003.41</ele>
        <time>2021-08-03T12:48:48Z</time>
      </trkpt>
      <trkpt lat="42.32551" lon="-0.69103">
        <ele>1002.8</ele>
        <time>2021-08-03T12:48:52Z</time>
      </trkpt>
      <trkpt lat="42.32554" lon="-0.69102">
        <ele>1002.75</ele>
        <time>2021-08-03T12:48:53Z</time>
      </trkpt>
      <trkpt lat="42.32558" lon="-0.69101">
        <ele>1002.72</ele>
        <time>2021-08-03T12:48:54Z</time>
      </trkpt>
      <trkpt lat="42.32581" lon="-0.69103">
        <ele>1002.52</ele>
        <time>2021-08-03T12:49:02Z</time>
      </trkpt>
      <trkpt lat="42.32583" lon="-0.69106">
        <ele>1002.59</ele>
        <time>2021-08-03T12:49:03Z</time>
      </trkpt>
      <trkpt lat="42.32582" lon="-0.69113">
        <ele>1002.72</ele>
        <time>2021-08-03T12:49:05Z</time>
      </trkpt>
      <trkpt lat="42.32581" lon="-0.69116">
        <ele>1002.79</ele>
        <time>2021-08-03T12:49:06Z</time>
      </trkpt>
      <trkpt lat="42.32565" lon="-0.69132">
        <ele>1004.32</ele>
        <time>2021-08-03T12:49:17Z</time>
      </trkpt>
      <trkpt lat="42.32568" lon="-0.69131">
        <ele>1006.13</ele>
        <time>2021-08-03T12:50:15Z</time>
      </trkpt>
      <trkpt lat="42.32566" lon="-0.69129">
        <ele>1006.14</ele>
        <time>2021-08-03T12:50:16Z</time>
      </trkpt>
      <trkpt lat="42.32565" lon="-0.69127">
        <ele>1006.18</ele>
        <time>2021-08-03T12:50:17Z</time>
      </trkpt>
      <trkpt lat="42.32564" lon="-0.69125">
        <ele>1006.23</ele>
        <time>2021-08-03T12:50:18Z</time>
      </trkpt>
      <trkpt lat="42.32564" lon="-0.69124">
        <ele>1006.87</ele>
        <time>2021-08-03T12:50:25Z</time>
      </trkpt>
      <trkpt lat="42.32566" lon="-0.69127">
        <ele>1006.96</ele>
        <time>2021-08-03T12:50:37Z</time>
      </trkpt>
      <trkpt lat="42.32566" lon="-0.69125">
        <ele>1006.94</ele>
        <time>2021-08-03T12:50:42Z</time>
      </trkpt>
      <trkpt lat="42.32569" lon="-0.6913">
        <ele>1006.82</ele>
        <time>2021-08-03T12:50:51Z</time>
      </trkpt>
      <trkpt lat="42.32588" lon="-0.69111">
        <ele>1006.3</ele>
        <time>2021-08-03T12:51:01Z</time>
      </trkpt>
      <trkpt lat="42.32606" lon="-0.69089">
        <ele>1004.38</ele>
        <time>2021-08-03T12:51:14Z</time>
      </trkpt>
      <trkpt lat="42.32619" lon="-0.6909">
        <ele>1003.74</ele>
        <time>2021-08-03T12:51:18Z</time>
      </trkpt>
      <trkpt lat="42.32625" lon="-0.6909">
        <ele>1003.6</ele>
        <time>2021-08-03T12:51:19Z</time>
      </trkpt>
      <trkpt lat="42.32631" lon="-0.69086">
        <ele>1003.45</ele>
        <time>2021-08-03T12:51:20Z</time>
      </trkpt>
      <trkpt lat="42.32652" lon="-0.69073">
        <ele>1002.62</ele>
        <time>2021-08-03T12:51:23Z</time>
      </trkpt>
      <trkpt lat="42.32659" lon="-0.69072">
        <ele>1002.35</ele>
        <time>2021-08-03T12:51:24Z</time>
      </trkpt>
      <trkpt lat="42.32665" lon="-0.69073">
        <ele>1002.17</ele>
        <time>2021-08-03T12:51:25Z</time>
      </trkpt>
      <trkpt lat="42.32703" lon="-0.69073">
        <ele>1001.8</ele>
        <time>2021-08-03T12:51:31Z</time>
      </trkpt>
      <trkpt lat="42.3273" lon="-0.69055">
        <ele>1002.47</ele>
        <time>2021-08-03T12:51:35Z</time>
      </trkpt>
      <trkpt lat="42.32766" lon="-0.69016">
        <ele>1004.75</ele>
        <time>2021-08-03T12:51:41Z</time>
      </trkpt>
      <trkpt lat="42.32778" lon="-0.69">
        <ele>1005.6</ele>
        <time>2021-08-03T12:51:48Z</time>
      </trkpt>
      <trkpt lat="42.32785" lon="-0.68996">
        <ele>1006.08</ele>
        <time>2021-08-03T12:52:19Z</time>
      </trkpt>
      <trkpt lat="42.32816" lon="-0.68938">
        <ele>1005.99</ele>
        <time>2021-08-03T12:52:25Z</time>
      </trkpt>
      <trkpt lat="42.32819" lon="-0.68923">
        <ele>1005.9</ele>
        <time>2021-08-03T12:52:26Z</time>
      </trkpt>
      <trkpt lat="42.32834" lon="-0.68866">
        <ele>1005.17</ele>
        <time>2021-08-03T12:52:30Z</time>
      </trkpt>
      <trkpt lat="42.32839" lon="-0.68805">
        <ele>1003.99</ele>
        <time>2021-08-03T12:52:35Z</time>
      </trkpt>
      <trkpt lat="42.32849" lon="-0.68766">
        <ele>1003.46</ele>
        <time>2021-08-03T12:52:39Z</time>
      </trkpt>
      <trkpt lat="42.32836" lon="-0.68725">
        <ele>1003.09</ele>
        <time>2021-08-03T12:52:45Z</time>
      </trkpt>
      <trkpt lat="42.32829" lon="-0.68724">
        <ele>1003.04</ele>
        <time>2021-08-03T12:52:46Z</time>
      </trkpt>
      <trkpt lat="42.32806" lon="-0.68721">
        <ele>1002.62</ele>
        <time>2021-08-03T12:52:49Z</time>
      </trkpt>
      <trkpt lat="42.32744" lon="-0.68741">
        <ele>1001.82</ele>
        <time>2021-08-03T12:52:57Z</time>
      </trkpt>
      <trkpt lat="42.32723" lon="-0.6873">
        <ele>1001.55</ele>
        <time>2021-08-03T12:53:00Z</time>
      </trkpt>
      <trkpt lat="42.32634" lon="-0.68676">
        <ele>1000.04</ele>
        <time>2021-08-03T12:53:12Z</time>
      </trkpt>
      <trkpt lat="42.3258" lon="-0.6867">
        <ele>997.93</ele>
        <time>2021-08-03T12:53:19Z</time>
      </trkpt>
      <trkpt lat="42.32561" lon="-0.68674">
        <ele>996.52</ele>
        <time>2021-08-03T12:53:22Z</time>
      </trkpt>
      <trkpt lat="42.32549" lon="-0.68677">
        <ele>995.75</ele>
        <time>2021-08-03T12:53:24Z</time>
      </trkpt>
      <trkpt lat="42.32526" lon="-0.68673">
        <ele>994.33</ele>
        <time>2021-08-03T12:53:28Z</time>
      </trkpt>
      <trkpt lat="42.32495" lon="-0.68655">
        <ele>992.89</ele>
        <time>2021-08-03T12:53:33Z</time>
      </trkpt>
      <trkpt lat="42.32486" lon="-0.68614">
        <ele>990.89</ele>
        <time>2021-08-03T12:53:40Z</time>
      </trkpt>
      <trkpt lat="42.3249" lon="-0.68608">
        <ele>990.63</ele>
        <time>2021-08-03T12:53:41Z</time>
      </trkpt>
      <trkpt lat="42.32521" lon="-0.68549">
        <ele>990.1</ele>
        <time>2021-08-03T12:53:48Z</time>
      </trkpt>
      <trkpt lat="42.32533" lon="-0.68502">
        <ele>990.04</ele>
        <time>2021-08-03T12:53:52Z</time>
      </trkpt>
      <trkpt lat="42.32547" lon="-0.68426">
        <ele>989.64</ele>
        <time>2021-08-03T12:53:59Z</time>
      </trkpt>
      <trkpt lat="42.32568" lon="-0.68394">
        <ele>989.29</ele>
        <time>2021-08-03T12:54:04Z</time>
      </trkpt>
      <trkpt lat="42.32568" lon="-0.6833">
        <ele>989.02</ele>
        <time>2021-08-03T12:54:11Z</time>
      </trkpt>
      <trkpt lat="42.3255" lon="-0.6832">
        <ele>988.76</ele>
        <time>2021-08-03T12:54:14Z</time>
      </trkpt>
      <trkpt lat="42.32536" lon="-0.68314">
        <ele>988.63</ele>
        <time>2021-08-03T12:54:16Z</time>
      </trkpt>
      <trkpt lat="42.32502" lon="-0.68252">
        <ele>987.24</ele>
        <time>2021-08-03T12:54:23Z</time>
      </trkpt>
      <trkpt lat="42.32462" lon="-0.68183">
        <ele>983.66</ele>
        <time>2021-08-03T12:54:30Z</time>
      </trkpt>
      <trkpt lat="42.32433" lon="-0.68146">
        <ele>980.87</ele>
        <time>2021-08-03T12:54:35Z</time>
      </trkpt>
      <trkpt lat="42.32419" lon="-0.68112">
        <ele>978.45</ele>
        <time>2021-08-03T12:54:39Z</time>
      </trkpt>
      <trkpt lat="42.32398" lon="-0.68046">
        <ele>975.99</ele>
        <time>2021-08-03T12:54:46Z</time>
      </trkpt>
      <trkpt lat="42.32393" lon="-0.67993">
        <ele>975.92</ele>
        <time>2021-08-03T12:54:50Z</time>
      </trkpt>
      <trkpt lat="42.32378" lon="-0.67939">
        <ele>976.91</ele>
        <time>2021-08-03T12:54:54Z</time>
      </trkpt>
      <trkpt lat="42.32349" lon="-0.67885">
        <ele>978.83</ele>
        <time>2021-08-03T12:54:59Z</time>
      </trkpt>
      <trkpt lat="42.32329" lon="-0.6779">
        <ele>982.73</ele>
        <time>2021-08-03T12:55:07Z</time>
      </trkpt>
      <trkpt lat="42.32319" lon="-0.67755">
        <ele>984.32</ele>
        <time>2021-08-03T12:55:10Z</time>
      </trkpt>
      <trkpt lat="42.32318" lon="-0.67695">
        <ele>987</ele>
        <time>2021-08-03T12:55:15Z</time>
      </trkpt>
      <trkpt lat="42.32327" lon="-0.67652">
        <ele>988.18</ele>
        <time>2021-08-03T12:55:18Z</time>
      </trkpt>
      <trkpt lat="42.32367" lon="-0.67595">
        <ele>990.21</ele>
        <time>2021-08-03T12:55:24Z</time>
      </trkpt>
      <trkpt lat="42.32393" lon="-0.67565">
        <ele>990.91</ele>
        <time>2021-08-03T12:55:27Z</time>
      </trkpt>
      <trkpt lat="42.324" lon="-0.6747">
        <ele>992.55</ele>
        <time>2021-08-03T12:55:33Z</time>
      </trkpt>
      <trkpt lat="42.32359" lon="-0.67307">
        <ele>995.76</ele>
        <time>2021-08-03T12:55:43Z</time>
      </trkpt>
      <trkpt lat="42.32339" lon="-0.67198">
        <ele>998.56</ele>
        <time>2021-08-03T12:55:50Z</time>
      </trkpt>
      <trkpt lat="42.32353" lon="-0.67129">
        <ele>999.69</ele>
        <time>2021-08-03T12:55:55Z</time>
      </trkpt>
      <trkpt lat="42.32378" lon="-0.67071">
        <ele>999.81</ele>
        <time>2021-08-03T12:56:00Z</time>
      </trkpt>
      <trkpt lat="42.32401" lon="-0.6704">
        <ele>1000.06</ele>
        <time>2021-08-03T12:56:03Z</time>
      </trkpt>
      <trkpt lat="42.32423" lon="-0.66987">
        <ele>1000.58</ele>
        <time>2021-08-03T12:56:09Z</time>
      </trkpt>
      <trkpt lat="42.32425" lon="-0.66974">
        <ele>1000.76</ele>
        <time>2021-08-03T12:56:19Z</time>
      </trkpt>
      <trkpt lat="42.32425" lon="-0.66972">
        <ele>1000.79</ele>
        <time>2021-08-03T12:56:20Z</time>
      </trkpt>
      <trkpt lat="42.32426" lon="-0.66953">
        <ele>1000.85</ele>
        <time>2021-08-03T12:56:25Z</time>
      </trkpt>
      <trkpt lat="42.32417" lon="-0.66907">
        <ele>1001.32</ele>
        <time>2021-08-03T12:56:30Z</time>
      </trkpt>
      <trkpt lat="42.32379" lon="-0.66793">
        <ele>1004.78</ele>
        <time>2021-08-03T12:56:42Z</time>
      </trkpt>
      <trkpt lat="42.32377" lon="-0.66784">
        <ele>1005.17</ele>
        <time>2021-08-03T12:56:43Z</time>
      </trkpt>
      <trkpt lat="42.32376" lon="-0.66766">
        <ele>1005.92</ele>
        <time>2021-08-03T12:56:45Z</time>
      </trkpt>
      <trkpt lat="42.3238" lon="-0.66732">
        <ele>1007.63</ele>
        <time>2021-08-03T12:56:49Z</time>
      </trkpt>
      <trkpt lat="42.32387" lon="-0.66714">
        <ele>1008.3</ele>
        <time>2021-08-03T12:56:51Z</time>
      </trkpt>
      <trkpt lat="42.32384" lon="-0.66657">
        <ele>1010.3</ele>
        <time>2021-08-03T12:56:56Z</time>
      </trkpt>
      <trkpt lat="42.32389" lon="-0.66572">
        <ele>1012.96</ele>
        <time>2021-08-03T12:57:04Z</time>
      </trkpt>
      <trkpt lat="42.32388" lon="-0.66562">
        <ele>1013.18</ele>
        <time>2021-08-03T12:57:05Z</time>
      </trkpt>
      <trkpt lat="42.32409" lon="-0.66492">
        <ele>1014.83</ele>
        <time>2021-08-03T12:57:12Z</time>
      </trkpt>
      <trkpt lat="42.32431" lon="-0.66458">
        <ele>1015.99</ele>
        <time>2021-08-03T12:57:16Z</time>
      </trkpt>
      <trkpt lat="42.32437" lon="-0.66411">
        <ele>1017.65</ele>
        <time>2021-08-03T12:57:21Z</time>
      </trkpt>
      <trkpt lat="42.32433" lon="-0.6639">
        <ele>1018.23</ele>
        <time>2021-08-03T12:57:23Z</time>
      </trkpt>
      <trkpt lat="42.32457" lon="-0.66297">
        <ele>1021.62</ele>
        <time>2021-08-03T12:57:31Z</time>
      </trkpt>
      <trkpt lat="42.3247" lon="-0.66279">
        <ele>1022.43</ele>
        <time>2021-08-03T12:57:33Z</time>
      </trkpt>
      <trkpt lat="42.32482" lon="-0.66198">
        <ele>1026.04</ele>
        <time>2021-08-03T12:57:41Z</time>
      </trkpt>
      <trkpt lat="42.32463" lon="-0.66162">
        <ele>1027.64</ele>
        <time>2021-08-03T12:57:45Z</time>
      </trkpt>
      <trkpt lat="42.32444" lon="-0.66136">
        <ele>1028.71</ele>
        <time>2021-08-03T12:57:48Z</time>
      </trkpt>
      <trkpt lat="42.32422" lon="-0.66042">
        <ele>1031.97</ele>
        <time>2021-08-03T12:57:57Z</time>
      </trkpt>
      <trkpt lat="42.3242" lon="-0.66034">
        <ele>1032.26</ele>
        <time>2021-08-03T12:57:58Z</time>
      </trkpt>
      <trkpt lat="42.32426" lon="-0.65995">
        <ele>1033.66</ele>
        <time>2021-08-03T12:58:02Z</time>
      </trkpt>
      <trkpt lat="42.32434" lon="-0.65977">
        <ele>1034.42</ele>
        <time>2021-08-03T12:58:04Z</time>
      </trkpt>
      <trkpt lat="42.32443" lon="-0.65936">
        <ele>1035.94</ele>
        <time>2021-08-03T12:58:08Z</time>
      </trkpt>
      <trkpt lat="42.32444" lon="-0.65916">
        <ele>1036.46</ele>
        <time>2021-08-03T12:58:10Z</time>
      </trkpt>
      <trkpt lat="42.32452" lon="-0.65876">
        <ele>1037.44</ele>
        <time>2021-08-03T12:58:14Z</time>
      </trkpt>
      <trkpt lat="42.3246" lon="-0.65855">
        <ele>1037.71</ele>
        <time>2021-08-03T12:58:16Z</time>
      </trkpt>
      <trkpt lat="42.32504" lon="-0.65826">
        <ele>1039.98</ele>
        <time>2021-08-03T12:58:23Z</time>
      </trkpt>
      <trkpt lat="42.32553" lon="-0.65839">
        <ele>1043.35</ele>
        <time>2021-08-03T12:58:33Z</time>
      </trkpt>
      <trkpt lat="42.3261" lon="-0.6585">
        <ele>1044.98</ele>
        <time>2021-08-03T12:58:40Z</time>
      </trkpt>
      <trkpt lat="42.32724" lon="-0.65864">
        <ele>1046.64</ele>
        <time>2021-08-03T12:58:51Z</time>
      </trkpt>
      <trkpt lat="42.32743" lon="-0.65867">
        <ele>1046.67</ele>
        <time>2021-08-03T12:58:53Z</time>
      </trkpt>
      <trkpt lat="42.32798" lon="-0.65827">
        <ele>1045.73</ele>
        <time>2021-08-03T12:59:00Z</time>
      </trkpt>
      <trkpt lat="42.32805" lon="-0.65794">
        <ele>1044.97</ele>
        <time>2021-08-03T12:59:03Z</time>
      </trkpt>
      <trkpt lat="42.32849" lon="-0.65743">
        <ele>1043.13</ele>
        <time>2021-08-03T12:59:11Z</time>
      </trkpt>
      <trkpt lat="42.32868" lon="-0.65735">
        <ele>1042.94</ele>
        <time>2021-08-03T12:59:13Z</time>
      </trkpt>
      <trkpt lat="42.32909" lon="-0.65699">
        <ele>1042.46</ele>
        <time>2021-08-03T12:59:18Z</time>
      </trkpt>
      <trkpt lat="42.32938" lon="-0.65665">
        <ele>1042.41</ele>
        <time>2021-08-03T12:59:22Z</time>
      </trkpt>
      <trkpt lat="42.32972" lon="-0.65653">
        <ele>1042.32</ele>
        <time>2021-08-03T12:59:26Z</time>
      </trkpt>
      <trkpt lat="42.33052" lon="-0.65657">
        <ele>1042.35</ele>
        <time>2021-08-03T12:59:35Z</time>
      </trkpt>
      <trkpt lat="42.33104" lon="-0.65658">
        <ele>1043.04</ele>
        <time>2021-08-03T12:59:42Z</time>
      </trkpt>
      <trkpt lat="42.33127" lon="-0.65605">
        <ele>1044.51</ele>
        <time>2021-08-03T12:59:49Z</time>
      </trkpt>
      <trkpt lat="42.33093" lon="-0.65535">
        <ele>1046.95</ele>
        <time>2021-08-03T12:59:56Z</time>
      </trkpt>
      <trkpt lat="42.33068" lon="-0.65487">
        <ele>1050.02</ele>
        <time>2021-08-03T13:00:01Z</time>
      </trkpt>
      <trkpt lat="42.33054" lon="-0.65425">
        <ele>1052.24</ele>
        <time>2021-08-03T13:00:06Z</time>
      </trkpt>
      <trkpt lat="42.33062" lon="-0.65349">
        <ele>1054.52</ele>
        <time>2021-08-03T13:00:12Z</time>
      </trkpt>
      <trkpt lat="42.33081" lon="-0.65273">
        <ele>1056.81</ele>
        <time>2021-08-03T13:00:18Z</time>
      </trkpt>
      <trkpt lat="42.33038" lon="-0.65222">
        <ele>1058.38</ele>
        <time>2021-08-03T13:00:24Z</time>
      </trkpt>
      <trkpt lat="42.33013" lon="-0.65174">
        <ele>1060.4</ele>
        <time>2021-08-03T13:00:30Z</time>
      </trkpt>
      <trkpt lat="42.33025" lon="-0.65143">
        <ele>1061.49</ele>
        <time>2021-08-03T13:00:33Z</time>
      </trkpt>
      <trkpt lat="42.33048" lon="-0.65099">
        <ele>1061.59</ele>
        <time>2021-08-03T13:00:37Z</time>
      </trkpt>
      <trkpt lat="42.3308" lon="-0.6506">
        <ele>1060.67</ele>
        <time>2021-08-03T13:00:41Z</time>
      </trkpt>
      <trkpt lat="42.331" lon="-0.65011">
        <ele>1059.28</ele>
        <time>2021-08-03T13:00:45Z</time>
      </trkpt>
      <trkpt lat="42.33106" lon="-0.64987">
        <ele>1058.47</ele>
        <time>2021-08-03T13:00:47Z</time>
      </trkpt>
      <trkpt lat="42.33156" lon="-0.64949">
        <ele>1054.51</ele>
        <time>2021-08-03T13:00:54Z</time>
      </trkpt>
      <trkpt lat="42.33183" lon="-0.64933">
        <ele>1052.96</ele>
        <time>2021-08-03T13:00:57Z</time>
      </trkpt>
      <trkpt lat="42.33225" lon="-0.64908">
        <ele>1050.25</ele>
        <time>2021-08-03T13:01:05Z</time>
      </trkpt>
      <trkpt lat="42.33239" lon="-0.64891">
        <ele>1049.98</ele>
        <time>2021-08-03T13:01:08Z</time>
      </trkpt>
      <trkpt lat="42.33255" lon="-0.64862">
        <ele>1049.95</ele>
        <time>2021-08-03T13:01:11Z</time>
      </trkpt>
      <trkpt lat="42.33311" lon="-0.6484">
        <ele>1050.39</ele>
        <time>2021-08-03T13:01:18Z</time>
      </trkpt>
      <trkpt lat="42.3334" lon="-0.64847">
        <ele>1050.98</ele>
        <time>2021-08-03T13:01:21Z</time>
      </trkpt>
      <trkpt lat="42.33387" lon="-0.64818">
        <ele>1052.8</ele>
        <time>2021-08-03T13:01:27Z</time>
      </trkpt>
      <trkpt lat="42.33406" lon="-0.64786">
        <ele>1053.9</ele>
        <time>2021-08-03T13:01:30Z</time>
      </trkpt>
      <trkpt lat="42.33412" lon="-0.64713">
        <ele>1055.25</ele>
        <time>2021-08-03T13:01:36Z</time>
      </trkpt>
      <trkpt lat="42.33423" lon="-0.64667">
        <ele>1056.09</ele>
        <time>2021-08-03T13:01:42Z</time>
      </trkpt>
      <trkpt lat="42.33466" lon="-0.64667">
        <ele>1055.72</ele>
        <time>2021-08-03T13:01:46Z</time>
      </trkpt>
      <trkpt lat="42.33488" lon="-0.64671">
        <ele>1055.41</ele>
        <time>2021-08-03T13:01:48Z</time>
      </trkpt>
      <trkpt lat="42.3352" lon="-0.64617">
        <ele>1053.74</ele>
        <time>2021-08-03T13:01:54Z</time>
      </trkpt>
      <trkpt lat="42.3353" lon="-0.64588">
        <ele>1053.18</ele>
        <time>2021-08-03T13:01:56Z</time>
      </trkpt>
      <trkpt lat="42.33594" lon="-0.64465">
        <ele>1050.65</ele>
        <time>2021-08-03T13:02:04Z</time>
      </trkpt>
      <trkpt lat="42.33642" lon="-0.64426">
        <ele>1048.39</ele>
        <time>2021-08-03T13:02:10Z</time>
      </trkpt>
      <trkpt lat="42.33659" lon="-0.64431">
        <ele>1047.71</ele>
        <time>2021-08-03T13:02:12Z</time>
      </trkpt>
      <trkpt lat="42.33682" lon="-0.64395">
        <ele>1044.28</ele>
        <time>2021-08-03T13:02:20Z</time>
      </trkpt>
      <trkpt lat="42.33681" lon="-0.64372">
        <ele>1043.7</ele>
        <time>2021-08-03T13:02:22Z</time>
      </trkpt>
      <trkpt lat="42.33646" lon="-0.64307">
        <ele>1041.4</ele>
        <time>2021-08-03T13:02:28Z</time>
      </trkpt>
      <trkpt lat="42.33623" lon="-0.64268">
        <ele>1039.14</ele>
        <time>2021-08-03T13:02:33Z</time>
      </trkpt>
      <trkpt lat="42.33608" lon="-0.64223">
        <ele>1037.11</ele>
        <time>2021-08-03T13:02:37Z</time>
      </trkpt>
      <trkpt lat="42.33608" lon="-0.64179">
        <ele>1035.26</ele>
        <time>2021-08-03T13:02:41Z</time>
      </trkpt>
      <trkpt lat="42.33605" lon="-0.64084">
        <ele>1032.95</ele>
        <time>2021-08-03T13:02:48Z</time>
      </trkpt>
      <trkpt lat="42.33597" lon="-0.6406">
        <ele>1032.4</ele>
        <time>2021-08-03T13:02:50Z</time>
      </trkpt>
      <trkpt lat="42.33567" lon="-0.64057">
        <ele>1030.65</ele>
        <time>2021-08-03T13:02:55Z</time>
      </trkpt>
      <trkpt lat="42.33494" lon="-0.6409">
        <ele>1028.06</ele>
        <time>2021-08-03T13:03:03Z</time>
      </trkpt>
      <trkpt lat="42.33423" lon="-0.64085">
        <ele>1025.81</ele>
        <time>2021-08-03T13:03:09Z</time>
      </trkpt>
      <trkpt lat="42.33376" lon="-0.64065">
        <ele>1023.27</ele>
        <time>2021-08-03T13:03:14Z</time>
      </trkpt>
      <trkpt lat="42.33297" lon="-0.64009">
        <ele>1019.97</ele>
        <time>2021-08-03T13:03:22Z</time>
      </trkpt>
      <trkpt lat="42.33253" lon="-0.63978">
        <ele>1018.52</ele>
        <time>2021-08-03T13:03:27Z</time>
      </trkpt>
      <trkpt lat="42.33199" lon="-0.63967">
        <ele>1018.32</ele>
        <time>2021-08-03T13:03:32Z</time>
      </trkpt>
      <trkpt lat="42.33136" lon="-0.63914">
        <ele>1018.51</ele>
        <time>2021-08-03T13:03:40Z</time>
      </trkpt>
      <trkpt lat="42.33116" lon="-0.63893">
        <ele>1018.59</ele>
        <time>2021-08-03T13:03:42Z</time>
      </trkpt>
      <trkpt lat="42.33091" lon="-0.6387">
        <ele>1018.84</ele>
        <time>2021-08-03T13:03:45Z</time>
      </trkpt>
      <trkpt lat="42.33087" lon="-0.63825">
        <ele>1019.02</ele>
        <time>2021-08-03T13:03:49Z</time>
      </trkpt>
      <trkpt lat="42.3304" lon="-0.63792">
        <ele>1019.65</ele>
        <time>2021-08-03T13:03:55Z</time>
      </trkpt>
      <trkpt lat="42.33029" lon="-0.63798">
        <ele>1019.88</ele>
        <time>2021-08-03T13:03:56Z</time>
      </trkpt>
      <trkpt lat="42.32997" lon="-0.63812">
        <ele>1020.68</ele>
        <time>2021-08-03T13:03:59Z</time>
      </trkpt>
      <trkpt lat="42.32959" lon="-0.63776">
        <ele>1022.42</ele>
        <time>2021-08-03T13:04:05Z</time>
      </trkpt>
      <trkpt lat="42.32951" lon="-0.6375">
        <ele>1022.82</ele>
        <time>2021-08-03T13:04:07Z</time>
      </trkpt>
      <trkpt lat="42.32969" lon="-0.63676">
        <ele>1024.89</ele>
        <time>2021-08-03T13:04:14Z</time>
      </trkpt>
      <trkpt lat="42.33008" lon="-0.63603">
        <ele>1027.21</ele>
        <time>2021-08-03T13:04:21Z</time>
      </trkpt>
      <trkpt lat="42.33008" lon="-0.6356">
        <ele>1028.43</ele>
        <time>2021-08-03T13:04:24Z</time>
      </trkpt>
      <trkpt lat="42.33032" lon="-0.63446">
        <ele>1030.5</ele>
        <time>2021-08-03T13:04:32Z</time>
      </trkpt>
      <trkpt lat="42.33041" lon="-0.63423">
        <ele>1030.9</ele>
        <time>2021-08-03T13:04:34Z</time>
      </trkpt>
      <trkpt lat="42.33053" lon="-0.63398">
        <ele>1031.25</ele>
        <time>2021-08-03T13:04:36Z</time>
      </trkpt>
      <trkpt lat="42.33065" lon="-0.63338">
        <ele>1032.06</ele>
        <time>2021-08-03T13:04:40Z</time>
      </trkpt>
      <trkpt lat="42.33062" lon="-0.63281">
        <ele>1033.03</ele>
        <time>2021-08-03T13:04:44Z</time>
      </trkpt>
      <trkpt lat="42.3304" lon="-0.63139">
        <ele>1035.77</ele>
        <time>2021-08-03T13:04:52Z</time>
      </trkpt>
      <trkpt lat="42.33031" lon="-0.63068">
        <ele>1036.68</ele>
        <time>2021-08-03T13:04:56Z</time>
      </trkpt>
      <trkpt lat="42.33003" lon="-0.63013">
        <ele>1036.59</ele>
        <time>2021-08-03T13:05:00Z</time>
      </trkpt>
      <trkpt lat="42.32985" lon="-0.62991">
        <ele>1036.21</ele>
        <time>2021-08-03T13:05:02Z</time>
      </trkpt>
      <trkpt lat="42.3294" lon="-0.62963">
        <ele>1033.93</ele>
        <time>2021-08-03T13:05:07Z</time>
      </trkpt>
      <trkpt lat="42.32924" lon="-0.62905">
        <ele>1030.77</ele>
        <time>2021-08-03T13:05:13Z</time>
      </trkpt>
      <trkpt lat="42.32955" lon="-0.62839">
        <ele>1027.94</ele>
        <time>2021-08-03T13:05:19Z</time>
      </trkpt>
      <trkpt lat="42.32994" lon="-0.62812">
        <ele>1026.71</ele>
        <time>2021-08-03T13:05:23Z</time>
      </trkpt>
      <trkpt lat="42.33015" lon="-0.62802">
        <ele>1025.96</ele>
        <time>2021-08-03T13:05:25Z</time>
      </trkpt>
      <trkpt lat="42.33043" lon="-0.62782">
        <ele>1025.1</ele>
        <time>2021-08-03T13:05:28Z</time>
      </trkpt>
      <trkpt lat="42.33063" lon="-0.62715">
        <ele>1023.67</ele>
        <time>2021-08-03T13:05:34Z</time>
      </trkpt>
      <trkpt lat="42.33032" lon="-0.62701">
        <ele>1022.61</ele>
        <time>2021-08-03T13:05:38Z</time>
      </trkpt>
      <trkpt lat="42.32952" lon="-0.62685">
        <ele>1018.71</ele>
        <time>2021-08-03T13:05:47Z</time>
      </trkpt>
      <trkpt lat="42.32919" lon="-0.62665">
        <ele>1016.34</ele>
        <time>2021-08-03T13:05:51Z</time>
      </trkpt>
      <trkpt lat="42.32891" lon="-0.62623">
        <ele>1013.38</ele>
        <time>2021-08-03T13:05:56Z</time>
      </trkpt>
      <trkpt lat="42.32882" lon="-0.62604">
        <ele>1012.51</ele>
        <time>2021-08-03T13:05:58Z</time>
      </trkpt>
      <trkpt lat="42.32857" lon="-0.62552">
        <ele>1009.17</ele>
        <time>2021-08-03T13:06:04Z</time>
      </trkpt>
      <trkpt lat="42.32816" lon="-0.62497">
        <ele>1005.58</ele>
        <time>2021-08-03T13:06:11Z</time>
      </trkpt>
      <trkpt lat="42.32772" lon="-0.62433">
        <ele>1002.52</ele>
        <time>2021-08-03T13:06:18Z</time>
      </trkpt>
      <trkpt lat="42.32722" lon="-0.62337">
        <ele>999.37</ele>
        <time>2021-08-03T13:06:26Z</time>
      </trkpt>
      <trkpt lat="42.32699" lon="-0.62291">
        <ele>997.65</ele>
        <time>2021-08-03T13:06:30Z</time>
      </trkpt>
      <trkpt lat="42.32688" lon="-0.62253">
        <ele>996.15</ele>
        <time>2021-08-03T13:06:33Z</time>
      </trkpt>
      <trkpt lat="42.32687" lon="-0.62239">
        <ele>994.97</ele>
        <time>2021-08-03T13:06:34Z</time>
      </trkpt>
      <trkpt lat="42.32682" lon="-0.62196">
        <ele>992.91</ele>
        <time>2021-08-03T13:06:37Z</time>
      </trkpt>
      <trkpt lat="42.32681" lon="-0.62158">
        <ele>990.77</ele>
        <time>2021-08-03T13:06:40Z</time>
      </trkpt>
      <trkpt lat="42.32652" lon="-0.62115">
        <ele>987.3</ele>
        <time>2021-08-03T13:06:45Z</time>
      </trkpt>
      <trkpt lat="42.32626" lon="-0.62099">
        <ele>985.95</ele>
        <time>2021-08-03T13:06:48Z</time>
      </trkpt>
      <trkpt lat="42.32569" lon="-0.62014">
        <ele>983.61</ele>
        <time>2021-08-03T13:06:56Z</time>
      </trkpt>
      <trkpt lat="42.32495" lon="-0.61887">
        <ele>981.53</ele>
        <time>2021-08-03T13:07:07Z</time>
      </trkpt>
      <trkpt lat="42.3247" lon="-0.61853">
        <ele>981.43</ele>
        <time>2021-08-03T13:07:12Z</time>
      </trkpt>
      <trkpt lat="42.3247" lon="-0.61856">
        <ele>981.73</ele>
        <time>2021-08-03T13:07:15Z</time>
      </trkpt>
      <trkpt lat="42.32478" lon="-0.6187">
        <ele>982.7</ele>
        <time>2021-08-03T13:07:25Z</time>
      </trkpt>
      <trkpt lat="42.32476" lon="-0.61867">
        <ele>982.63</ele>
        <time>2021-08-03T13:07:26Z</time>
      </trkpt>
      <trkpt lat="42.32465" lon="-0.61849">
        <ele>982.52</ele>
        <time>2021-08-03T13:07:31Z</time>
      </trkpt>
      <trkpt lat="42.32472" lon="-0.61836">
        <ele>983.34</ele>
        <time>2021-08-03T13:07:35Z</time>
      </trkpt>
      <trkpt lat="42.32488" lon="-0.61755">
        <ele>986.23</ele>
        <time>2021-08-03T13:07:43Z</time>
      </trkpt>
      <trkpt lat="42.32472" lon="-0.61678">
        <ele>990.15</ele>
        <time>2021-08-03T13:07:48Z</time>
      </trkpt>
      <trkpt lat="42.32458" lon="-0.61607">
        <ele>994.27</ele>
        <time>2021-08-03T13:07:52Z</time>
      </trkpt>
      <trkpt lat="42.32454" lon="-0.6158">
        <ele>996.56</ele>
        <time>2021-08-03T13:07:54Z</time>
      </trkpt>
      <trkpt lat="42.32473" lon="-0.61557">
        <ele>1000.89</ele>
        <time>2021-08-03T13:07:58Z</time>
      </trkpt>
      <trkpt lat="42.32495" lon="-0.61579">
        <ele>1004</ele>
        <time>2021-08-03T13:08:01Z</time>
      </trkpt>
      <trkpt lat="42.32501" lon="-0.61594">
        <ele>1004.92</ele>
        <time>2021-08-03T13:08:02Z</time>
      </trkpt>
      <trkpt lat="42.32533" lon="-0.61663">
        <ele>1009.72</ele>
        <time>2021-08-03T13:08:07Z</time>
      </trkpt>
      <trkpt lat="42.32573" lon="-0.61719">
        <ele>1013.76</ele>
        <time>2021-08-03T13:08:11Z</time>
      </trkpt>
      <trkpt lat="42.32612" lon="-0.61754">
        <ele>1018.54</ele>
        <time>2021-08-03T13:08:14Z</time>
      </trkpt>
      <trkpt lat="42.32657" lon="-0.61815">
        <ele>1024.37</ele>
        <time>2021-08-03T13:08:18Z</time>
      </trkpt>
      <trkpt lat="42.32705" lon="-0.61861">
        <ele>1031.55</ele>
        <time>2021-08-03T13:08:23Z</time>
      </trkpt>
      <trkpt lat="42.32729" lon="-0.61826">
        <ele>1035.45</ele>
        <time>2021-08-03T13:08:26Z</time>
      </trkpt>
      <trkpt lat="42.3274" lon="-0.61775">
        <ele>1039.29</ele>
        <time>2021-08-03T13:08:29Z</time>
      </trkpt>
      <trkpt lat="42.3275" lon="-0.61698">
        <ele>1044.58</ele>
        <time>2021-08-03T13:08:33Z</time>
      </trkpt>
      <trkpt lat="42.32751" lon="-0.61644">
        <ele>1048.64</ele>
        <time>2021-08-03T13:08:36Z</time>
      </trkpt>
      <trkpt lat="42.32756" lon="-0.61601">
        <ele>1053.07</ele>
        <time>2021-08-03T13:08:39Z</time>
      </trkpt>
      <trkpt lat="42.32762" lon="-0.61561">
        <ele>1057.12</ele>
        <time>2021-08-03T13:08:42Z</time>
      </trkpt>
      <trkpt lat="42.32765" lon="-0.61515">
        <ele>1060.37</ele>
        <time>2021-08-03T13:08:45Z</time>
      </trkpt>
      <trkpt lat="42.32766" lon="-0.61502">
        <ele>1061.53</ele>
        <time>2021-08-03T13:08:46Z</time>
      </trkpt>
      <trkpt lat="42.32783" lon="-0.61463">
        <ele>1065.97</ele>
        <time>2021-08-03T13:08:50Z</time>
      </trkpt>
      <trkpt lat="42.32804" lon="-0.61458">
        <ele>1069.43</ele>
        <time>2021-08-03T13:08:54Z</time>
      </trkpt>
      <trkpt lat="42.32808" lon="-0.61461">
        <ele>1073.17</ele>
        <time>2021-08-03T13:09:00Z</time>
      </trkpt>
      <trkpt lat="42.32813" lon="-0.61461">
        <ele>1074.01</ele>
        <time>2021-08-03T13:09:03Z</time>
      </trkpt>
      <trkpt lat="42.32816" lon="-0.6147">
        <ele>1075.94</ele>
        <time>2021-08-03T13:09:10Z</time>
      </trkpt>
      <trkpt lat="42.32813" lon="-0.61469">
        <ele>1076.55</ele>
        <time>2021-08-03T13:09:27Z</time>
      </trkpt>
      <trkpt lat="42.32801" lon="-0.6147">
        <ele>1076.85</ele>
        <time>2021-08-03T13:09:31Z</time>
      </trkpt>
      <trkpt lat="42.32766" lon="-0.61516">
        <ele>1075.6</ele>
        <time>2021-08-03T13:09:40Z</time>
      </trkpt>
      <trkpt lat="42.32766" lon="-0.61527">
        <ele>1075.21</ele>
        <time>2021-08-03T13:09:41Z</time>
      </trkpt>
      <trkpt lat="42.32764" lon="-0.6155">
        <ele>1074.31</ele>
        <time>2021-08-03T13:09:43Z</time>
      </trkpt>
      <trkpt lat="42.32753" lon="-0.6158">
        <ele>1070.46</ele>
        <time>2021-08-03T13:09:50Z</time>
      </trkpt>
      <trkpt lat="42.32753" lon="-0.61581">
        <ele>1067.36</ele>
        <time>2021-08-03T13:09:56Z</time>
      </trkpt>
      <trkpt lat="42.32753" lon="-0.61584">
        <ele>1067.02</ele>
        <time>2021-08-03T13:10:51Z</time>
      </trkpt>
      <trkpt lat="42.32751" lon="-0.61619">
        <ele>1067</ele>
        <time>2021-08-03T13:10:56Z</time>
      </trkpt>
      <trkpt lat="42.32737" lon="-0.61749">
        <ele>1066.25</ele>
        <time>2021-08-03T13:11:03Z</time>
      </trkpt>
      <trkpt lat="42.32718" lon="-0.6183">
        <ele>1064.42</ele>
        <time>2021-08-03T13:11:07Z</time>
      </trkpt>
      <trkpt lat="42.32675" lon="-0.61868">
        <ele>1059.84</ele>
        <time>2021-08-03T13:11:12Z</time>
      </trkpt>
      <trkpt lat="42.3265" lon="-0.6183">
        <ele>1055.77</ele>
        <time>2021-08-03T13:11:15Z</time>
      </trkpt>
      <trkpt lat="42.32597" lon="-0.61756">
        <ele>1048.89</ele>
        <time>2021-08-03T13:11:20Z</time>
      </trkpt>
      <trkpt lat="42.32549" lon="-0.61704">
        <ele>1043.72</ele>
        <time>2021-08-03T13:11:24Z</time>
      </trkpt>
      <trkpt lat="42.32519" lon="-0.61662">
        <ele>1039.38</ele>
        <time>2021-08-03T13:11:27Z</time>
      </trkpt>
      <trkpt lat="42.32511" lon="-0.61647">
        <ele>1037.77</ele>
        <time>2021-08-03T13:11:28Z</time>
      </trkpt>
      <trkpt lat="42.32499" lon="-0.61618">
        <ele>1034.68</ele>
        <time>2021-08-03T13:11:30Z</time>
      </trkpt>
      <trkpt lat="42.32492" lon="-0.61593">
        <ele>1029.87</ele>
        <time>2021-08-03T13:11:32Z</time>
      </trkpt>
      <trkpt lat="42.3249" lon="-0.61583">
        <ele>1028.3</ele>
        <time>2021-08-03T13:11:33Z</time>
      </trkpt>
      <trkpt lat="42.32471" lon="-0.61559">
        <ele>1022.48</ele>
        <time>2021-08-03T13:11:37Z</time>
      </trkpt>
      <trkpt lat="42.32455" lon="-0.61574">
        <ele>1018.96</ele>
        <time>2021-08-03T13:11:40Z</time>
      </trkpt>
      <trkpt lat="42.32459" lon="-0.6163">
        <ele>1015.2</ele>
        <time>2021-08-03T13:11:44Z</time>
      </trkpt>
      <trkpt lat="42.32485" lon="-0.61753">
        <ele>1010.75</ele>
        <time>2021-08-03T13:11:50Z</time>
      </trkpt>
      <trkpt lat="42.3249" lon="-0.61786">
        <ele>1008.87</ele>
        <time>2021-08-03T13:11:52Z</time>
      </trkpt>
      <trkpt lat="42.32482" lon="-0.61838">
        <ele>1004.01</ele>
        <time>2021-08-03T13:11:56Z</time>
      </trkpt>
      <trkpt lat="42.32454" lon="-0.61856">
        <ele>999.95</ele>
        <time>2021-08-03T13:11:59Z</time>
      </trkpt>
      <trkpt lat="42.32426" lon="-0.6184">
        <ele>996.33</ele>
        <time>2021-08-03T13:12:02Z</time>
      </trkpt>
      <trkpt lat="42.32418" lon="-0.61826">
        <ele>995.23</ele>
        <time>2021-08-03T13:12:03Z</time>
      </trkpt>
      <trkpt lat="42.32401" lon="-0.61806">
        <ele>992.93</ele>
        <time>2021-08-03T13:12:05Z</time>
      </trkpt>
      <trkpt lat="42.3236" lon="-0.61779">
        <ele>988.26</ele>
        <time>2021-08-03T13:12:09Z</time>
      </trkpt>
      <trkpt lat="42.32326" lon="-0.61788">
        <ele>984.44</ele>
        <time>2021-08-03T13:12:12Z</time>
      </trkpt>
      <trkpt lat="42.32315" lon="-0.61795">
        <ele>983.25</ele>
        <time>2021-08-03T13:12:13Z</time>
      </trkpt>
      <trkpt lat="42.3226" lon="-0.61801">
        <ele>977.58</ele>
        <time>2021-08-03T13:12:18Z</time>
      </trkpt>
      <trkpt lat="42.32241" lon="-0.61763">
        <ele>974.03</ele>
        <time>2021-08-03T13:12:21Z</time>
      </trkpt>
      <trkpt lat="42.32227" lon="-0.61717">
        <ele>970.18</ele>
        <time>2021-08-03T13:12:24Z</time>
      </trkpt>
      <trkpt lat="42.32186" lon="-0.61679">
        <ele>964.64</ele>
        <time>2021-08-03T13:12:28Z</time>
      </trkpt>
      <trkpt lat="42.32158" lon="-0.61658">
        <ele>960.86</ele>
        <time>2021-08-03T13:12:31Z</time>
      </trkpt>
      <trkpt lat="42.32136" lon="-0.61651">
        <ele>956.48</ele>
        <time>2021-08-03T13:12:34Z</time>
      </trkpt>
      <trkpt lat="42.32122" lon="-0.61677">
        <ele>952.42</ele>
        <time>2021-08-03T13:12:37Z</time>
      </trkpt>
      <trkpt lat="42.32112" lon="-0.61713">
        <ele>948.53</ele>
        <time>2021-08-03T13:12:40Z</time>
      </trkpt>
      <trkpt lat="42.32087" lon="-0.6173">
        <ele>945.5</ele>
        <time>2021-08-03T13:12:43Z</time>
      </trkpt>
      <trkpt lat="42.32058" lon="-0.61744">
        <ele>942.48</ele>
        <time>2021-08-03T13:12:46Z</time>
      </trkpt>
      <trkpt lat="42.32028" lon="-0.61736">
        <ele>938.45</ele>
        <time>2021-08-03T13:12:50Z</time>
      </trkpt>
      <trkpt lat="42.32024" lon="-0.61725">
        <ele>937.35</ele>
        <time>2021-08-03T13:12:51Z</time>
      </trkpt>
      <trkpt lat="42.31982" lon="-0.61674">
        <ele>931.38</ele>
        <time>2021-08-03T13:12:57Z</time>
      </trkpt>
      <trkpt lat="42.31977" lon="-0.61709">
        <ele>928.76</ele>
        <time>2021-08-03T13:13:00Z</time>
      </trkpt>
      <trkpt lat="42.31999" lon="-0.61757">
        <ele>924.88</ele>
        <time>2021-08-03T13:13:04Z</time>
      </trkpt>
      <trkpt lat="42.32" lon="-0.61804">
        <ele>920.95</ele>
        <time>2021-08-03T13:13:08Z</time>
      </trkpt>
      <trkpt lat="42.3199" lon="-0.61817">
        <ele>917.88</ele>
        <time>2021-08-03T13:13:10Z</time>
      </trkpt>
      <trkpt lat="42.31961" lon="-0.61814">
        <ele>914.13</ele>
        <time>2021-08-03T13:13:14Z</time>
      </trkpt>
      <trkpt lat="42.31954" lon="-0.6181">
        <ele>913.4</ele>
        <time>2021-08-03T13:13:15Z</time>
      </trkpt>
      <trkpt lat="42.31938" lon="-0.61802">
        <ele>911.86</ele>
        <time>2021-08-03T13:13:17Z</time>
      </trkpt>
      <trkpt lat="42.31897" lon="-0.61762">
        <ele>907.71</ele>
        <time>2021-08-03T13:13:23Z</time>
      </trkpt>
      <trkpt lat="42.31893" lon="-0.61705">
        <ele>903.38</ele>
        <time>2021-08-03T13:13:29Z</time>
      </trkpt>
      <trkpt lat="42.3187" lon="-0.61683">
        <ele>900.24</ele>
        <time>2021-08-03T13:13:33Z</time>
      </trkpt>
      <trkpt lat="42.3186" lon="-0.61684">
        <ele>899.73</ele>
        <time>2021-08-03T13:13:34Z</time>
      </trkpt>
      <trkpt lat="42.31841" lon="-0.61688">
        <ele>898.85</ele>
        <time>2021-08-03T13:13:36Z</time>
      </trkpt>
      <trkpt lat="42.31816" lon="-0.61697">
        <ele>897.06</ele>
        <time>2021-08-03T13:13:39Z</time>
      </trkpt>
      <trkpt lat="42.31769" lon="-0.61696">
        <ele>892.7</ele>
        <time>2021-08-03T13:13:44Z</time>
      </trkpt>
      <trkpt lat="42.31749" lon="-0.61685">
        <ele>891.05</ele>
        <time>2021-08-03T13:13:46Z</time>
      </trkpt>
      <trkpt lat="42.31695" lon="-0.61649">
        <ele>886.53</ele>
        <time>2021-08-03T13:13:51Z</time>
      </trkpt>
      <trkpt lat="42.31631" lon="-0.61638">
        <ele>883.47</ele>
        <time>2021-08-03T13:13:55Z</time>
      </trkpt>
      <trkpt lat="42.31549" lon="-0.61647">
        <ele>879.3</ele>
        <time>2021-08-03T13:14:00Z</time>
      </trkpt>
      <trkpt lat="42.31487" lon="-0.61673">
        <ele>875.32</ele>
        <time>2021-08-03T13:14:04Z</time>
      </trkpt>
      <trkpt lat="42.31443" lon="-0.61692">
        <ele>872.31</ele>
        <time>2021-08-03T13:14:07Z</time>
      </trkpt>
      <trkpt lat="42.31399" lon="-0.61706">
        <ele>869.06</ele>
        <time>2021-08-03T13:14:10Z</time>
      </trkpt>
      <trkpt lat="42.31402" lon="-0.6171">
        <ele>827.5</ele>
      </trkpt>
      <trkpt lat="42.31409" lon="-0.61712">
        <ele>827.6</ele>
      </trkpt>
      <trkpt lat="42.31441" lon="-0.61713">
        <ele>828.3</ele>
      </trkpt>
      <trkpt lat="42.31497" lon="-0.6172">
        <ele>828</ele>
      </trkpt>
      <trkpt lat="42.31517" lon="-0.6172">
        <ele>829</ele>
      </trkpt>
      <trkpt lat="42.31528" lon="-0.61722">
        <ele>829.4</ele>
      </trkpt>
      <trkpt lat="42.3155" lon="-0.61731">
        <ele>829.4</ele>
      </trkpt>
      <trkpt lat="42.31561" lon="-0.61738">
        <ele>829.1</ele>
      </trkpt>
      <trkpt lat="42.31581" lon="-0.61755">
        <ele>828.7</ele>
      </trkpt>
      <trkpt lat="42.31596" lon="-0.61774">
        <ele>829.5</ele>
      </trkpt>
      <trkpt lat="42.3161" lon="-0.61804">
        <ele>829.1</ele>
      </trkpt>
      <trkpt lat="42.31617" lon="-0.61829">
        <ele>827.9</ele>
      </trkpt>
      <trkpt lat="42.31622" lon="-0.61845">
        <ele>827.6</ele>
      </trkpt>
      <trkpt lat="42.31624" lon="-0.61854">
        <ele>827.5</ele>
      </trkpt>
      <trkpt lat="42.31633" lon="-0.61906">
        <ele>826.3</ele>
      </trkpt>
      <trkpt lat="42.31636" lon="-0.61928">
        <ele>824.9</ele>
      </trkpt>
      <trkpt lat="42.31636" lon="-0.61942">
        <ele>823.5</ele>
      </trkpt>
      <trkpt lat="42.31633" lon="-0.61956">
        <ele>822.1</ele>
      </trkpt>
      <trkpt lat="42.31628" lon="-0.61975">
        <ele>820.1</ele>
      </trkpt>
      <trkpt lat="42.31608" lon="-0.62032">
        <ele>813.1</ele>
      </trkpt>
      <trkpt lat="42.31585" lon="-0.62144">
        <ele>800</ele>
      </trkpt>
      <trkpt lat="42.31586" lon="-0.62168">
        <ele>798.1</ele>
      </trkpt>
      <trkpt lat="42.31603" lon="-0.62299">
        <ele>793.6</ele>
      </trkpt>
      <trkpt lat="42.31603" lon="-0.62302">
        <ele>793.5</ele>
      </trkpt>
    </trkseg>
  </trk>
</gpx>